Time;durP1;ratioP1;P1;durP2;ratioP2;P2;SDS_P1;SDS_P2;PMS_P1;PMS_P2;Temp;Humidity;BMP_temperature;BMP_pressure;BME280_temperature;BME280_humidity;BME280_pressure;Samples;Min_cycle;Max_cycle;Signal;HPM_P1;HPM_P2
2021/12/02 00:00:58;;;;;;;5.03;2.30;;;;;;;9.22;58.47;98995.69;5494131;32;34764;-73
2021/12/02 00:04:01;;;;;;;5.63;2.47;;;;;;;8.84;59.90;98991.72;5475602;32;33840;-68
2021/12/02 00:07:07;;;;;;;11.13;2.63;;;;;;;8.53;60.66;99001.19;5479977;32;34320;-73
2021/12/02 00:10:10;;;;;;;4.60;2.17;;;;;;;9.51;57.74;99006.31;5487108;32;34185;-73
2021/12/02 00:13:12;;;;;;;4.93;1.67;;;;;;;9.69;56.95;99000.03;5453278;32;35457;-68
2021/12/02 00:22:51;;;;;;;5.03;2.23;;;;;;;9.76;56.75;98976.91;5485407;32;34005;-71
2021/12/02 00:25:53;;;;;;;6.60;2.50;;;;;;;9.43;57.72;98977.06;5488013;32;35266;-73
2021/12/02 00:28:57;;;;;;;9.73;2.43;;;;;;;9.19;58.48;98977.50;5478605;32;34267;-73
2021/12/02 00:32:06;;;;;;;4.27;1.93;;;;;;;9.37;57.99;98986.13;5496003;32;34730;-73
2021/12/02 00:35:09;;;;;;;4.57;2.33;;;;;;;9.38;58.08;98984.34;5497329;32;34555;-73
2021/12/02 00:38:11;;;;;;;7.03;2.50;;;;;;;9.35;58.29;98980.13;5467319;32;34779;-68
2021/12/02 00:41:15;;;;;;;5.03;2.30;;;;;;;9.28;58.58;98983.19;5484469;32;35008;-72
2021/12/02 00:44:21;;;;;;;4.90;2.13;;;;;;;9.35;58.32;98979.28;5476002;32;34821;-72
2021/12/02 00:47:23;;;;;;;4.13;2.07;;;;;;;9.15;58.99;98976.00;5477539;32;34479;-72
2021/12/02 00:50:26;;;;;;;5.87;2.33;;;;;;;9.63;57.60;98984.66;5477061;32;34482;-72
2021/12/02 00:53:31;;;;;;;5.03;2.33;;;;;;;9.29;58.57;98980.47;5465068;32;33718;-67
2021/12/02 00:56:33;;;;;;;7.40;2.40;;;;;;;9.78;57.83;98973.25;5501238;32;34963;-68
2021/12/02 00:59:36;;;;;;;5.20;2.70;;;;;;;10.03;56.53;98977.91;5490757;32;33471;-72
2021/12/02 01:02:40;;;;;;;5.77;2.70;;;;;;;10.36;55.31;98986.53;5459824;32;34005;-72
2021/12/02 01:05:42;;;;;;;6.33;2.70;;;;;;;10.33;55.54;98986.72;5478850;32;36815;-68
2021/12/02 01:08:45;;;;;;;6.93;2.62;;;;;;;10.16;55.75;98988.53;5476769;32;34177;-68
2021/12/02 01:11:48;;;;;;;7.73;2.87;;;;;;;10.19;55.65;98988.37;5482184;32;35182;-72
2021/12/02 01:14:50;;;;;;;7.20;2.97;;;;;;;10.37;55.38;98990.84;5491912;32;34813;-67
2021/12/02 01:17:53;;;;;;;5.83;2.60;;;;;;;10.39;55.13;98996.84;5480652;32;34121;-67
2021/12/02 01:20:56;;;;;;;7.00;3.17;;;;;;;10.22;55.65;98993.41;5492903;32;33318;-71
2021/12/02 01:24:02;;;;;;;7.00;3.30;;;;;;;10.12;56.10;98997.53;5498041;32;34179;-68
2021/12/02 01:27:07;;;;;;;10.67;3.93;;;;;;;10.41;55.21;98997.59;5483358;32;33662;-72
2021/12/02 01:30:10;;;;;;;7.00;2.87;;;;;;;10.57;54.60;98995.75;5504276;32;34218;-68
2021/12/02 01:33:14;;;;;;;6.70;2.80;;;;;;;10.68;54.23;98992.44;5467114;32;34867;-68
2021/12/02 01:36:18;;;;;;;13.17;3.20;;;;;;;10.56;54.45;98991.41;5467470;32;35748;-72
2021/12/02 01:39:21;;;;;;;7.70;3.10;;;;;;;10.34;55.36;98972.66;5479087;32;33954;-74
2021/12/02 01:42:28;;;;;;;6.33;2.90;;;;;;;9.89;56.75;98984.91;5482431;32;35855;-68
2021/12/02 01:45:30;;;;;;;7.30;2.73;;;;;;;10.06;56.58;98973.44;5482903;32;36371;-72
2021/12/02 01:48:35;;;;;;;8.07;2.90;;;;;;;9.91;57.13;98978.63;5472579;32;35543;-72
2021/12/02 01:51:42;;;;;;;7.57;2.87;;;;;;;9.99;56.29;98980.84;5483388;32;34228;-71
2021/12/02 01:54:45;;;;;;;6.17;2.77;;;;;;;10.47;54.65;98961.31;5483129;32;34151;-67
2021/12/02 01:58:00;;;;;;;5.65;2.60;;;;;;;10.44;54.91;98973.78;5488781;32;34142;-68
2021/12/02 02:01:03;;;;;;;6.10;2.50;;;;;;;10.55;54.75;98971.34;5485885;32;34503;-67
2021/12/02 02:04:06;;;;;;;4.67;2.53;;;;;;;10.28;54.78;98966.81;5464778;32;33825;-71
2021/12/02 02:07:13;;;;;;;7.27;2.43;;;;;;;10.62;54.35;98971.81;5489648;32;34877;-67
2021/12/02 02:10:16;;;;;;;7.77;2.53;;;;;;;10.26;54.87;98967.88;5481143;32;33879;-67
2021/12/02 02:13:20;;;;;;;5.50;2.20;;;;;;;9.90;56.19;98965.59;5476477;32;35056;-71
2021/12/02 02:16:24;;;;;;;5.47;2.57;;;;;;;9.58;57.16;98975.34;5486168;32;34218;-73
2021/12/02 02:19:31;;;;;;;7.65;2.33;;;;;;;9.27;58.43;98969.22;5476535;32;34005;-69
2021/12/02 02:22:34;;;;;;;6.30;2.17;;;;;;;9.43;57.95;98970.03;5486219;32;34880;-72
2021/12/02 02:25:37;;;;;;;5.17;2.10;;;;;;;9.38;58.08;98964.22;5476711;32;34649;-72
2021/12/02 02:28:40;;;;;;;5.60;2.15;;;;;;;9.34;58.36;98969.72;5494748;32;33975;-71
2021/12/02 02:31:43;;;;;;;5.20;2.17;;;;;;;9.47;57.87;98973.34;5495067;32;34379;-73
2021/12/02 02:34:46;;;;;;;7.18;2.75;;;;;;;9.56;57.58;98964.94;5494163;32;33616;-68
2021/12/02 02:37:48;;;;;;;5.18;2.35;;;;;;;9.42;57.68;98957.87;5499139;32;34823;-69
2021/12/02 02:40:51;;;;;;;5.70;2.50;;;;;;;8.75;60.04;98958.13;5490321;32;35394;-73
2021/12/02 02:43:56;;;;;;;5.43;2.40;;;;;;;9.57;58.10;98953.50;5469010;32;34440;-69
2021/12/02 02:46:59;;;;;;;5.10;2.23;;;;;;;9.75;56.56;98957.69;5474237;32;33728;-67
2021/12/02 02:50:01;;;;;;;8.47;2.60;;;;;;;10.16;55.91;98954.41;5463789;32;33924;-67
2021/12/02 02:53:20;;;;;;;7.93;2.70;;;;;;;10.49;54.49;98955.94;5482229;32;35456;-68
2021/12/02 02:56:28;;;;;;;5.40;2.50;;;;;;;10.23;54.97;98976.75;5477649;32;34144;-68
2021/12/02 02:59:44;;;;;;;7.23;2.70;;;;;;;10.47;54.52;98970.97;5496567;32;35109;-68
2021/12/02 03:02:56;;;;;;;7.60;3.13;;;;;;;9.96;56.43;98960.00;5466621;32;33643;-72
2021/12/02 03:06:09;;;;;;;6.07;2.80;;;;;;;10.63;54.06;98963.84;5465162;32;34130;-72
2021/12/02 03:12:37;;;;;;;6.10;2.90;;;;;;;10.03;56.66;98962.16;5489960;32;34182;-73
2021/12/02 03:19:01;;;;;;;8.17;3.07;;;;;;;10.27;56.11;98952.00;5480131;32;35221;-69
2021/12/02 03:22:04;;;;;;;6.90;3.07;;;;;;;10.23;56.20;98947.88;5469956;32;33826;-71
2021/12/02 03:25:07;;;;;;;5.50;2.37;;;;;;;10.31;55.97;98944.81;5483228;32;32950;-68
2021/12/02 03:28:09;;;;;;;5.57;2.40;;;;;;;9.52;58.30;98958.19;5476997;32;34797;-73
2021/12/02 03:31:12;;;;;;;8.03;3.30;;;;;;;9.85;57.30;98965.88;5475327;32;34085;-72
2021/12/02 03:34:15;;;;;;;11.77;3.03;;;;;;;9.42;58.58;98972.75;5484359;32;34898;-69
2021/12/02 03:37:17;;;;;;;4.70;2.40;;;;;;;9.07;59.94;98972.94;5479202;32;190031;-72
2021/12/02 03:40:20;;;;;;;6.72;2.95;;;;;;;8.93;60.49;98978.09;5467243;32;35375;-68
2021/12/02 03:43:23;;;;;;;5.17;2.40;;;;;;;9.22;59.95;98973.88;5454299;32;34117;-68
2021/12/02 03:46:27;;;;;;;5.87;2.58;;;;;;;9.31;60.15;98957.63;5471587;32;35036;-72
2021/12/02 03:49:29;;;;;;;;;;;;;;;9.05;60.57;98961.72;5481076;32;34311;-68
2021/12/02 03:52:32;;;;;;;7.40;2.63;;;;;;;9.17;61.32;98960.19;5488825;32;34578;-68
2021/12/02 03:55:34;;;;;;;5.73;2.50;;;;;;;8.09;65.21;98962.44;5477953;32;35154;-68
2021/12/02 03:58:39;;;;;;;5.50;2.87;;;;;;;8.41;63.82;98939.84;5498945;32;34440;-67
2021/12/02 04:01:41;;;;;;;7.37;2.90;;;;;;;9.27;61.22;98947.41;5499676;32;36089;-68
2021/12/02 04:04:44;;;;;;;8.50;3.10;;;;;;;9.67;59.36;98945.97;5483999;32;33481;-74
2021/12/02 04:07:46;;;;;;;7.83;3.10;;;;;;;9.73;59.80;98956.13;5486490;32;33876;-73
2021/12/02 04:10:57;;;;;;;7.30;2.90;;;;;;;9.83;58.39;98957.25;5480426;32;33894;-69
2021/12/02 04:17:13;;;;;;;6.17;2.50;;;;;;;10.22;57.69;98950.56;5493885;32;34616;-68
2021/12/02 04:20:19;;;;;;;4.67;2.30;;;;;;;10.41;56.75;98950.31;5466032;32;33890;-72
2021/12/02 04:23:21;;;;;;;7.40;2.50;;;;;;;10.00;57.65;98954.47;5485007;32;33928;-69
2021/12/02 04:26:24;;;;;;;7.50;2.70;;;;;;;9.39;60.32;98957.19;5467795;32;34086;-69
2021/12/02 04:29:27;;;;;;;6.63;2.40;;;;;;;9.37;60.36;98949.41;5483993;32;33969;-73
2021/12/02 04:32:30;;;;;;;6.43;2.90;;;;;;;9.32;60.58;98976.81;5497964;32;33413;-68
2021/12/02 04:35:33;;;;;;;6.10;2.43;;;;;;;9.27;61.09;98976.22;5504373;32;34682;-73
2021/12/02 04:38:35;;;;;;;6.43;2.83;;;;;;;9.41;60.29;98966.69;5475417;32;35372;-67
2021/12/02 04:41:37;;;;;;;6.77;2.87;;;;;;;8.90;63.16;98958.16;5492342;32;34290;-72
2021/12/02 04:44:40;;;;;;;7.37;2.87;;;;;;;9.72;59.69;98964.91;5496667;32;34684;-68
2021/12/02 04:47:42;;;;;;;7.77;2.97;;;;;;;9.92;58.58;98969.00;5473074;32;35071;-72
2021/12/02 04:50:45;;;;;;;8.10;2.70;;;;;;;9.58;60.35;98976.19;5498566;32;34214;-73
2021/12/02 04:53:47;;;;;;;5.83;2.87;;;;;;;9.83;59.49;98959.03;5476817;32;34489;-72
2021/12/02 04:56:49;;;;;;;8.67;3.20;;;;;;;9.93;58.82;98954.94;5472747;32;36086;-72
2021/12/02 04:59:51;;;;;;;8.67;3.13;;;;;;;9.42;61.11;98959.66;5493176;32;35515;-67
2021/12/02 05:02:54;;;;;;;10.37;3.80;;;;;;;9.34;62.23;98953.97;5478506;32;34665;-67
2021/12/02 05:05:56;;;;;;;6.87;3.23;;;;;;;9.56;60.70;98946.59;5471947;32;34827;-71
2021/12/02 05:08:59;;;;;;;9.60;3.73;;;;;;;9.86;59.55;98938.72;5501445;32;34296;-69
2021/12/02 05:12:01;;;;;;;9.43;3.73;;;;;;;9.56;59.90;98935.25;5486804;32;34133;-73
2021/12/02 05:15:04;;;;;;;7.17;3.60;;;;;;;9.58;59.76;98941.25;5452460;32;33926;-68
2021/12/02 05:18:06;;;;;;;10.67;4.37;;;;;;;10.09;58.12;98960.12;5471275;32;35032;-67
2021/12/02 05:21:08;;;;;;;9.77;4.20;;;;;;;10.17;58.41;98965.75;5480199;32;34048;-67
2021/12/02 05:24:11;;;;;;;9.50;4.00;;;;;;;9.40;61.56;98978.09;5476244;32;35285;-68
2021/12/02 05:27:14;;;;;;;9.63;4.30;;;;;;;9.36;60.79;98981.81;5495854;32;35281;-72
2021/12/02 05:30:17;;;;;;;7.72;3.83;;;;;;;8.80;63.23;98969.22;5476519;32;34647;-67
2021/12/02 05:33:19;;;;;;;7.57;3.67;;;;;;;8.59;64.20;98961.59;5499264;32;35129;-72
2021/12/02 05:36:22;;;;;;;14.20;3.92;;;;;;;8.57;64.27;98960.00;5475217;32;35210;-71
2021/12/02 05:39:24;;;;;;;11.57;3.87;;;;;;;8.70;64.22;98968.03;5493835;32;33974;-67
2021/12/02 05:42:26;;;;;;;7.47;2.87;;;;;;;8.73;64.11;98960.84;5480546;32;35035;-72
2021/12/02 05:45:29;;;;;;;10.17;3.60;;;;;;;8.71;64.30;98957.47;5487298;32;34544;-68
2021/12/02 05:48:31;;;;;;;8.50;3.80;;;;;;;8.90;64.27;98958.16;5467506;32;34224;-73
2021/12/02 05:51:33;;;;;;;10.60;4.00;;;;;;;9.06;64.11;98952.06;5477237;32;33752;-69
2021/12/02 05:54:36;;;;;;;7.80;3.57;;;;;;;9.23;63.22;98944.97;5483001;32;34446;-68
2021/12/02 05:57:39;;;;;;;8.73;3.50;;;;;;;9.21;63.17;98941.59;5475138;32;34484;-67
2021/12/02 06:00:42;;;;;;;9.40;3.83;;;;;;;9.27;63.41;98936.91;5498520;32;34608;-66
2021/12/02 06:03:44;;;;;;;8.18;3.15;;;;;;;9.01;64.35;98938.38;5501072;32;35839;-68
2021/12/02 06:06:48;;;;;;;7.43;3.63;;;;;;;9.80;62.07;98935.59;5475939;32;34798;-68
2021/12/02 06:09:52;;;;;;;10.70;3.57;;;;;;;9.26;63.55;98953.56;5469881;32;34186;-73
2021/12/02 06:12:56;;;;;;;8.93;3.73;;;;;;;9.70;63.09;98941.37;5463201;32;33917;-68
2021/12/02 06:15:58;;;;;;;10.57;4.90;;;;;;;9.97;61.76;98945.94;5498074;32;33876;-68
2021/12/02 06:19:01;;;;;;;10.13;4.97;;;;;;;10.02;61.10;98951.75;5497746;32;33877;-69
2021/12/02 06:22:04;;;;;;;8.83;4.20;;;;;;;8.94;64.22;98962.28;5466676;32;33392;-67
2021/12/02 06:28:17;;;;;;;8.93;4.07;;;;;;;9.34;62.49;98953.97;5494435;32;34453;-73
2021/12/02 06:31:21;;;;;;;11.12;4.70;;;;;;;9.44;63.39;98948.13;5475442;32;35073;-67
2021/12/02 06:34:23;;;;;;;10.87;4.67;;;;;;;9.72;60.84;98941.28;5469750;32;35359;-76
2021/12/02 06:37:26;;;;;;;10.20;4.57;;;;;;;9.98;60.55;98947.63;5498572;32;34304;-70
2021/12/02 06:40:28;;;;;;;10.77;5.23;;;;;;;10.19;59.83;98942.88;5475653;32;34681;-73
2021/12/02 06:43:32;;;;;;;;;;;;;;;9.64;61.44;98951.38;5501721;32;33747;-71
2021/12/02 06:46:36;;;;;;;10.40;5.65;;;;;;;9.67;61.65;98965.19;5497064;32;34186;-72
2021/12/02 06:49:40;;;;;;;11.10;5.40;;;;;;;9.54;61.45;98958.97;5494206;32;33828;-69
2021/12/02 06:52:43;;;;;;;15.17;5.77;;;;;;;9.23;62.71;98965.94;5480212;32;33683;-73
2021/12/02 06:55:45;;;;;;;11.53;5.33;;;;;;;8.98;63.69;98970.84;5473355;32;34969;-70
2021/12/02 06:58:49;;;;;;;13.25;5.75;;;;;;;8.40;67.17;98968.75;5492733;32;37987;-73
2021/12/02 07:01:52;;;;;;;12.20;5.95;;;;;;;8.53;67.12;98976.78;5467338;32;35015;-79
2021/12/02 07:04:55;;;;;;;16.30;6.22;;;;;;;9.89;62.11;98971.78;5480091;32;34147;-74
2021/12/02 07:07:57;;;;;;;12.77;5.90;;;;;;;9.13;64.89;98974.38;5483310;32;34767;-72
2021/12/02 07:11:05;;;;;;;13.17;6.40;;;;;;;9.25;64.03;98970.25;5481535;32;33211;-69
2021/12/02 07:14:16;;;;;;;15.87;6.80;;;;;;;10.09;60.63;98979.34;5463486;32;35216;-73
2021/12/02 07:17:18;;;;;;;14.53;6.67;;;;;;;10.41;59.39;98992.34;5481362;32;35474;-69
2021/12/02 07:20:21;;;;;;;15.17;7.67;;;;;;;10.34;59.66;99001.53;5471704;32;34820;-73
2021/12/02 07:23:23;;;;;;;15.83;6.63;;;;;;;10.16;59.22;99009.53;5487883;32;34348;-74
2021/12/02 07:26:26;;;;;;;15.40;6.80;;;;;;;10.36;58.06;99003.13;5483165;32;35007;-71
2021/12/02 07:29:29;;;;;;;16.70;7.03;;;;;;;9.83;60.13;99006.25;5505141;32;34390;-75
2021/12/02 07:32:40;;;;;;;16.00;7.18;;;;;;;9.09;63.93;98999.94;5470294;32;35482;-77
2021/12/02 07:35:43;;;;;;;18.70;7.80;;;;;;;9.71;61.41;99008.66;5494289;32;36762;-71
2021/12/02 07:38:46;;;;;;;18.03;7.83;;;;;;;9.23;63.43;98996.53;5484745;32;33815;-77
2021/12/02 07:41:49;;;;;;;17.48;7.87;;;;;;;9.76;62.33;99000.53;5494202;32;32725;-75
2021/12/02 07:44:52;;;;;;;13.38;7.78;;;;;;;8.82;66.27;99014.50;5462938;32;34308;-72
2021/12/02 07:47:59;;;;;;;15.25;7.15;;;;;;;9.78;61.94;99003.91;5466566;32;34937;-78
2021/12/02 07:51:08;;;;;;;17.07;7.40;;;;;;;9.47;63.42;99010.06;5465550;32;35012;-68
2021/12/02 07:54:13;;;;;;;18.07;8.63;;;;;;;9.21;64.53;99016.78;5485386;32;34021;-66
2021/12/02 07:57:16;;;;;;;17.87;7.67;;;;;;;8.97;66.18;99013.72;5497119;32;34262;-66
2021/12/02 08:00:26;;;;;;;23.10;9.10;;;;;;;8.66;68.37;99011.88;5488060;32;34269;-65
2021/12/02 08:03:31;;;;;;;17.40;7.97;;;;;;;8.98;68.67;99018.00;5474611;32;33895;-67
2021/12/02 08:06:33;;;;;;;20.57;10.37;;;;;;;9.42;66.61;99012.09;5481909;32;34262;-68
2021/12/02 08:09:35;;;;;;;16.00;9.03;;;;;;;8.57;70.88;99018.47;5488504;32;33951;-68
2021/12/02 08:12:40;;;;;;;20.00;9.10;;;;;;;9.44;67.64;99028.59;5492707;32;34034;-76
2021/12/02 08:15:43;;;;;;;17.67;8.73;;;;;;;9.66;67.32;99021.22;5474100;32;34033;-68
2021/12/02 08:18:45;;;;;;;20.30;7.50;;;;;;;9.80;66.11;99019.56;5483937;32;34020;-68
2021/12/02 08:21:48;;;;;;;18.87;7.40;;;;;;;9.92;66.22;99018.87;5472443;32;34280;-76
2021/12/02 08:24:51;;;;;;;17.57;7.57;;;;;;;10.20;64.86;99015.47;5482116;32;33747;-69
2021/12/02 08:27:56;;;;;;;17.35;7.30;;;;;;;9.92;65.86;99017.09;5492002;32;34344;-75
2021/12/02 08:30:58;;;;;;;17.10;8.03;;;;;;;9.63;67.07;99026.63;5481791;32;33965;-76
2021/12/02 08:34:02;;;;;;;20.90;9.43;;;;;;;9.58;67.51;99035.66;5513084;32;32956;-76
2021/12/02 08:37:09;;;;;;;20.83;9.40;;;;;;;8.92;70.69;99031.44;5484570;32;36412;-68
2021/12/02 08:40:13;;;;;;;17.90;9.00;;;;;;;8.50;72.67;99048.50;5492349;32;33906;-67
2021/12/02 08:43:18;;;;;;;20.30;9.00;;;;;;;9.27;71.34;99052.25;5511342;32;33694;-69
2021/12/02 08:46:24;;;;;;;19.00;8.37;;;;;;;9.86;67.08;99050.72;5465944;32;34055;-68
2021/12/02 08:49:26;;;;;;;15.17;8.13;;;;;;;9.75;67.13;99046.91;5453874;32;34238;-76
2021/12/02 08:52:30;;;;;;;15.47;7.93;;;;;;;9.56;68.46;99051.50;5499173;32;34357;-67
2021/12/02 08:55:36;;;;;;;17.97;8.20;;;;;;;9.49;69.51;99058.03;5496631;32;34954;-67
2021/12/02 08:58:39;;;;;;;16.37;7.37;;;;;;;9.53;69.92;99050.81;5488220;32;36435;-69
2021/12/02 09:01:41;;;;;;;20.17;7.47;;;;;;;9.55;69.91;99046.34;5455998;32;34545;-68
2021/12/02 09:04:44;;;;;;;15.55;7.78;;;;;;;9.59;70.79;99056.56;5483219;32;33411;-69
2021/12/02 09:07:47;;;;;;;17.57;7.50;;;;;;;10.03;68.53;99040.06;5477227;32;35306;-74
2021/12/02 09:10:50;;;;;;;;;;;;;;;10.00;69.12;99043.72;5467811;32;35109;-76
2021/12/02 09:13:56;;;;;;;16.47;7.30;;;;;;;10.16;68.91;99038.41;5474585;32;34696;-76
2021/12/02 09:16:59;;;;;;;19.57;7.00;;;;;;;10.10;69.17;99032.69;5478884;32;35182;-76
2021/12/02 09:20:06;;;;;;;16.48;8.60;;;;;;;10.23;68.87;99029.28;5483594;32;34054;-70
2021/12/02 09:23:13;;;;;;;20.50;9.77;;;;;;;9.77;71.65;99034.53;5477388;32;35066;-74
2021/12/02 09:26:16;;;;;;;16.73;7.97;;;;;;;9.80;73.62;99025.66;5472454;32;35023;-71
2021/12/02 09:29:24;;;;;;;17.33;9.13;;;;;;;9.89;72.64;99006.75;5499789;32;33204;-73
2021/12/02 09:32:28;;;;;;;16.10;7.67;;;;;;;10.47;70.70;99011.22;5485804;32;32556;-80
2021/12/02 09:35:32;;;;;;;19.33;8.00;;;;;;;10.68;69.04;99003.78;5494332;32;34803;-69
2021/12/02 09:38:35;;;;;;;16.83;8.32;;;;;;;10.20;70.66;99007.59;5483911;32;33801;-71
2021/12/02 09:41:38;;;;;;;13.73;7.32;;;;;;;9.81;72.91;98995.03;5510667;32;34057;-80
2021/12/02 09:44:47;;;;;;;17.43;7.93;;;;;;;10.79;69.75;98993.47;5462197;32;34302;-69
2021/12/02 09:47:54;;;;;;;19.07;8.60;;;;;;;10.76;69.06;98991.06;5481908;32;34232;-70
2021/12/02 09:51:10;;;;;;;15.50;8.00;;;;;;;10.10;73.16;98993.31;5487149;32;35287;-71
2021/12/02 09:54:37;;;;;;;20.23;8.80;;;;;;;9.86;74.15;98987.72;5494681;32;34392;-71
2021/12/02 09:57:44;;;;;;;25.43;12.03;;;;;;;9.83;75.31;98987.91;5477621;32;33963;-71
2021/12/02 10:01:05;;;;;;;23.70;9.30;;;;;;;10.12;74.02;98984.41;5471682;32;33795;-68
2021/12/02 10:04:11;;;;;;;19.27;8.10;;;;;;;10.17;75.10;98979.72;5495377;32;34930;-74
2021/12/02 10:07:18;;;;;;;23.90;9.97;;;;;;;9.83;75.88;98974.78;5488335;32;34677;-71
2021/12/02 10:10:29;;;;;;;25.23;12.20;;;;;;;9.61;78.22;98976.03;5501860;32;34108;-67
2021/12/02 10:13:47;;;;;;;27.67;12.57;;;;;;;9.79;77.01;98971.50;5484541;32;33928;-72
2021/12/02 10:17:05;;;;;;;23.80;12.10;;;;;;;9.34;79.05;98977.56;5486603;32;34610;-68
2021/12/02 10:23:23;;;;;;;23.87;13.37;;;;;;;9.40;77.73;98956.25;5502709;32;34024;-67
2021/12/02 10:26:26;;;;;;;25.50;13.13;;;;;;;8.95;80.22;98955.28;5482945;32;33798;-69
2021/12/02 10:29:31;;;;;;;27.97;13.00;;;;;;;9.58;77.71;98963.06;5480826;32;33869;-65
2021/12/02 10:32:34;;;;;;;24.37;12.40;;;;;;;9.95;75.27;98953.91;5475142;32;34344;-65
2021/12/02 10:35:49;;;;;;;26.80;12.80;;;;;;;10.17;75.23;98948.22;5488654;32;33940;-67
2021/12/02 10:38:52;;;;;;;23.43;12.73;;;;;;;9.64;76.38;98956.63;5502494;32;33285;-66
2021/12/02 10:42:07;;;;;;;27.63;11.83;;;;;;;9.36;77.86;98957.37;5466189;32;33861;-70
2021/12/02 10:45:19;;;;;;;22.47;11.40;;;;;;;9.47;77.33;98944.50;5485357;32;32772;-70
2021/12/02 10:48:46;;;;;;;20.13;9.97;;;;;;;10.12;75.80;98945.03;5469073;32;34007;-66
2021/12/02 10:51:50;;;;;;;21.47;9.90;;;;;;;9.39;78.08;98951.94;5503168;32;34045;-68
2021/12/02 10:55:14;;;;;;;20.23;9.80;;;;;;;9.08;78.82;98945.84;5475450;32;34623;-63
2021/12/02 10:58:16;;;;;;;17.33;9.63;;;;;;;9.81;77.77;98942.53;5500939;32;33901;-67
2021/12/02 11:01:40;;;;;;;16.13;8.50;;;;;;;9.89;76.52;98935.91;5485691;32;34175;-75
2021/12/02 11:04:47;;;;;;;14.27;7.90;;;;;;;9.13;78.53;98935.91;5468425;32;32904;-72
2021/12/02 11:08:00;;;;;;;15.40;8.10;;;;;;;9.48;76.96;98922.59;5473470;32;34125;-74
2021/12/02 11:11:23;;;;;;;22.20;12.80;;;;;;;9.78;77.15;98914.69;5495642;32;34770;-70
2021/12/02 11:14:29;;;;;;;14.83;7.90;;;;;;;9.51;77.92;98909.28;5505416;32;35667;-72
2021/12/02 11:17:33;;;;;;;14.37;6.93;;;;;;;9.62;76.90;98914.75;5504779;32;34046;-67
2021/12/02 11:20:38;;;;;;;17.30;7.23;;;;;;;8.93;78.46;98908.19;5483737;32;37725;-65
2021/12/02 11:23:47;;;;;;;16.77;8.37;;;;;;;9.77;75.33;98903.34;5503243;32;35211;-71
2021/12/02 11:27:08;;;;;;;15.27;5.70;;;;;;;9.51;75.64;98898.78;5481517;32;35428;-68
2021/12/02 11:30:13;;;;;;;12.10;5.50;;;;;;;9.19;74.07;98895.41;5479246;32;33917;-66
2021/12/02 11:33:19;;;;;;;13.37;6.23;;;;;;;8.67;78.41;98904.41;5483234;32;34271;-69
2021/12/02 11:36:28;;;;;;;11.10;5.77;;;;;;;9.04;76.04;98902.38;5498854;32;34017;-66
2021/12/02 11:39:31;;;;;;;14.03;5.40;;;;;;;9.29;75.11;98895.72;5507932;32;35190;-63
2021/12/02 11:42:35;;;;;;;10.17;4.97;;;;;;;8.17;80.20;98904.47;5477399;32;34024;-62
2021/12/02 11:45:46;;;;;;;10.57;4.87;;;;;;;8.92;76.09;98893.41;5487927;32;36846;-62
2021/12/02 11:48:48;;;;;;;11.47;4.40;;;;;;;8.79;76.16;98897.66;5481800;32;36147;-66
2021/12/02 11:51:52;;;;;;;8.93;3.87;;;;;;;8.44;76.86;98902.22;5471063;32;34198;-63
2021/12/02 11:54:59;;;;;;;9.30;4.40;;;;;;;8.49;76.80;98899.31;5476296;32;33923;-64
2021/12/02 11:58:01;;;;;;;8.80;3.47;;;;;;;8.52;78.11;98892.16;5484424;32;33893;-63
2021/12/02 12:01:04;;;;;;;8.87;3.93;;;;;;;8.87;76.30;98889.34;5495546;32;34146;-71
2021/12/02 12:04:09;;;;;;;9.90;4.20;;;;;;;8.35;78.82;98890.44;5474534;32;36222;-66
2021/12/02 12:07:15;;;;;;;9.47;3.53;;;;;;;8.64;77.77;98880.16;5476219;32;34223;-69
2021/12/02 12:10:36;;;;;;;7.47;3.97;;;;;;;8.45;77.05;98876.88;5491818;32;34092;-66
2021/12/02 12:13:53;;;;;;;7.27;2.93;;;;;;;7.81;78.95;98886.31;5470624;32;33701;-66
2021/12/02 12:17:16;;;;;;;7.33;2.93;;;;;;;8.66;75.98;98876.53;5499623;32;34021;-64
2021/12/02 12:20:19;;;;;;;5.83;3.10;;;;;;;7.98;79.56;98867.94;5482587;32;33871;-65
2021/12/02 12:23:28;;;;;;;5.03;2.35;;;;;;;7.90;80.50;98879.75;5481857;32;34767;-67
2021/12/02 12:26:37;;;;;;;9.90;3.90;;;;;;;8.06;79.23;98876.25;5499865;32;33653;-66
2021/12/02 12:29:41;;;;;;;7.43;3.27;;;;;;;7.85;80.41;98872.13;5484639;32;34988;-70
2021/12/02 12:32:50;;;;;;;7.45;3.40;;;;;;;7.61;80.21;98850.72;5488210;32;35226;-68
2021/12/02 12:36:07;;;;;;;9.10;3.53;;;;;;;8.29;79.51;98855.84;5481343;32;36561;-70
2021/12/02 12:39:31;;;;;;;7.90;3.63;;;;;;;8.19;80.03;98859.91;5488603;32;33997;-69
2021/12/02 12:42:35;;;;;;;8.23;3.60;;;;;;;9.10;76.68;98856.63;5504395;32;34753;-69
2021/12/02 12:45:42;;;;;;;8.67;3.20;;;;;;;8.75;77.59;98861.22;5497936;32;33991;-68
2021/12/02 12:48:55;;;;;;;10.87;3.60;;;;;;;8.22;79.84;98860.59;5508294;32;38367;-69
2021/12/02 12:51:59;;;;;;;;;;;;;;;8.20;79.10;98854.59;5491924;32;33340;-68
2021/12/02 12:55:15;;;;;;;9.93;3.70;;;;;;;8.52;78.61;98858.13;5502755;32;34022;-68
2021/12/02 12:58:29;;;;;;;5.17;2.60;;;;;;;8.66;76.74;98860.81;5500202;32;35049;-68
2021/12/02 13:01:32;;;;;;;9.57;3.22;;;;;;;8.86;75.04;98867.56;5484307;32;34069;-66
2021/12/02 13:04:51;;;;;;;7.87;2.93;;;;;;;9.00;74.24;98864.16;5502346;32;34055;-64
2021/12/02 13:08:36;;;;;;;5.27;2.37;;;;;;;9.50;73.60;98860.38;5487746;32;33927;-65
2021/12/02 13:11:40;;;;;;;4.00;1.80;;;;;;;9.58;71.43;98850.28;5488420;32;33999;-65
2021/12/02 13:14:43;;;;;;;6.43;2.25;;;;;;;8.13;76.24;98854.06;5460839;32;34143;-71
2021/12/02 13:17:53;;;;;;;7.25;2.42;;;;;;;8.03;77.32;98845.00;5496341;32;35176;-67
2021/12/02 13:20:56;;;;;;;5.57;1.93;;;;;;;9.21;74.43;98841.13;5478515;32;34744;-69
2021/12/02 13:24:06;;;;;;;6.00;2.57;;;;;;;8.97;74.32;98843.37;5470734;32;34604;-67
2021/12/02 13:27:08;;;;;;;3.73;1.93;;;;;;;8.94;74.72;98838.28;5487925;32;35520;-66
2021/12/02 13:30:14;;;;;;;7.93;2.57;;;;;;;9.62;72.11;98840.47;5476707;32;35556;-67
2021/12/02 13:33:16;;;;;;;5.00;2.03;;;;;;;9.37;72.18;98841.91;5473912;32;34949;-67
2021/12/02 13:36:41;;;;;;;4.83;2.37;;;;;;;10.41;69.08;98840.00;5470236;32;33963;-67
2021/12/02 13:39:43;;;;;;;;;;;;;;;10.48;68.80;98843.94;5472225;32;33847;-67
2021/12/02 13:42:58;;;;;;;9.30;3.70;;;;;;;10.19;69.29;98851.00;5477193;32;35218;-68
2021/12/02 13:46:12;;;;;;;10.60;4.63;;;;;;;9.39;74.09;98852.31;5458472;32;35256;-66
2021/12/02 13:49:21;;;;;;;8.00;3.12;;;;;;;10.15;70.37;98855.56;5473796;32;33928;-64
2021/12/02 13:52:49;;;;;;;7.47;3.10;;;;;;;8.97;74.58;98861.72;5457120;32;34515;-64
2021/12/02 13:56:01;;;;;;;9.00;3.50;;;;;;;8.83;76.50;98865.13;5448946;32;35025;-67
2021/12/02 13:59:18;;;;;;;11.47;4.30;;;;;;;9.01;74.32;98859.75;5481422;32;34068;-66
2021/12/02 14:02:25;;;;;;;11.80;5.50;;;;;;;9.08;73.65;98841.00;5472220;32;33885;-63
2021/12/02 14:05:30;;;;;;;10.07;4.27;;;;;;;9.01;75.69;98841.41;5473868;32;33919;-63
2021/12/02 14:08:37;;;;;;;11.83;4.37;;;;;;;9.00;75.76;98842.34;5468401;32;35496;-66
2021/12/02 14:11:39;;;;;;;7.40;3.80;;;;;;;9.63;73.88;98845.62;5476915;32;34097;-67
2021/12/02 14:15:11;;;;;;;7.95;3.47;;;;;;;8.81;76.87;98858.25;5456968;32;34107;-66
2021/12/02 14:18:22;;;;;;;10.37;4.30;;;;;;;9.38;72.64;98848.00;5463749;32;33944;-66
2021/12/02 14:21:24;;;;;;;11.57;4.63;;;;;;;9.77;72.38;98844.78;5459089;32;34088;-66
2021/12/02 14:24:28;;;;;;;9.40;4.40;;;;;;;9.13;75.57;98832.84;5450065;32;35129;-67
2021/12/02 14:27:30;;;;;;;29.43;13.00;;;;;;;9.06;75.92;98832.34;5455022;32;34051;-67
2021/12/02 14:30:55;;;;;;;11.07;4.27;;;;;;;8.73;77.71;98823.81;5463298;32;34131;-67
2021/12/02 14:34:04;;;;;;;10.97;4.70;;;;;;;9.48;73.63;98822.94;5444313;32;33879;-63
2021/12/02 14:37:14;;;;;;;16.00;5.13;;;;;;;9.49;74.22;98835.09;5465812;32;33943;-67
2021/12/02 14:40:45;;;;;;;14.63;4.87;;;;;;;9.61;72.94;98849.28;5474169;32;33891;-68
2021/12/02 14:43:59;;;;;;;16.47;5.50;;;;;;;10.51;69.34;98857.75;5481596;32;33681;-66
2021/12/02 14:47:03;;;;;;;16.08;5.18;;;;;;;10.21;70.64;98870.94;5466753;32;34040;-66
2021/12/02 14:50:08;;;;;;;9.50;4.83;;;;;;;9.49;72.25;98880.53;5483548;32;34066;-66
2021/12/02 14:53:29;;;;;;;12.33;6.40;;;;;;;8.64;77.80;98888.03;5477537;32;34236;-67
2021/12/02 14:56:34;;;;;;;14.03;5.40;;;;;;;8.29;78.69;98882.03;5463166;32;33932;-63
2021/12/02 14:59:42;;;;;;;10.27;5.10;;;;;;;8.58;78.89;98894.44;5499096;32;35184;-66
2021/12/02 15:02:57;;;;;;;10.10;5.20;;;;;;;9.37;73.70;98889.09;5461936;32;34079;-64